Flight Track Log - Related Links

Times and Time Zones

All times are in EDT time to prevent confusion due to time zone crossing. See the SWA864 flight status page for this flight to view local times or setup timezone preferences in your user account.

Time Position Orientation Groundspeed Altitude Reporting Facility
EDT Latitude Longitude Course Direction KTS MPH feet Rate Location/Type
Sat 07:42:24 AM 42.7694 -73.8089 353° North 144 166 1,400  Level Boston Center
Sat 07:42:49 AM 42.7903 -73.8122 353° North 175 201 1,800 2,072 Climbing Boston Center
Sat 07:44:43 AM 42.9022 -73.8544 345° North 239 275 6,200 2,586 Climbing Boston Center
Sat 07:45:43 AM 42.9431 -73.9264 308° West 244 281 9,300 2,550 Climbing Boston Center
Sat 07:46:43 AM 42.9939 -74.0211 306° West 276 318 11,300 2,400 Climbing Boston Center
Sat 07:47:43 AM 43.0300 -74.1244 296° West 316 364 14,100 3,050 Climbing Boston Center
Sat 07:48:43 AM 43.0381 -74.2667 274° West 337 388 17,400 2,950 Climbing Boston Center
Sat 07:49:43 AM 43.0503 -74.4092 277° West 363 418 20,000 2,750 Climbing Boston Center
Sat 07:50:43 AM 43.0583 -74.5486 275° West 370 426 22,900 1,850 Climbing Boston Center
Sat 07:51:43 AM 43.0639 -74.6881 273° West 370 426 23,700 1,400 Climbing Boston Center
Sat 07:52:43 AM 43.0547 -74.8356 265° West 375 432 25,700 2,050 Climbing Boston Center
Sat 07:53:43 AM 43.0453 -74.9858 265° West 391 450 27,800 2,350 Climbing Boston Center
Sat 07:54:43 AM 43.0356 -75.1358 265° West 401 461 30,400 2,350 Climbing Boston Center
Sat 07:55:43 AM 43.0258 -75.2775 265° West 396 456 32,500 1,850 Climbing Boston Center
Sat 07:56:43 AM 43.0136 -75.4217 263° West 391 450 34,100 1,550 Climbing Boston Center
Sat 07:57:43 AM 43.0058 -75.5633 266° West 385 443 35,600 1,500 Climbing Boston Center
Sat 07:58:43 AM 42.9956 -75.7050 264° West 385 443 37,100 1,200 Climbing Boston Center
Sat 07:59:43 AM 42.9853 -75.8433 264° West 385 443 38,000 344 Climbing Boston Center
Sat 08:01:20 AM 42.9683 -76.0711 264° West 381 438 38,000  Level Cleveland Center
Sat 08:02:20 AM 42.9569 -76.2111 264° West 376 433 38,000  Level Cleveland Center
Sat 08:03:20 AM 42.9475 -76.3508 265° West 371 427 38,000  Level Cleveland Center
Sat 08:04:20 AM 42.9358 -76.4906 264° West 371 427 38,000  Level Cleveland Center
Sat 08:05:20 AM 42.9242 -76.6303 264° West 371 427 38,000  Level Cleveland Center
Sat 08:06:20 AM 42.9158 -76.7558 265° West 371 427 38,000  Level Cleveland Center
Sat 08:07:20 AM 42.9039 -76.8983 264° West 371 427 38,000  Level Cleveland Center
Sat 08:08:20 AM 42.8894 -77.0408 262° West 377 434 38,000  Level Cleveland Center
Sat 08:09:20 AM 42.8478 -77.1792 248° West 383 441 38,000  Level Cleveland Center
Sat 08:10:20 AM 42.8039 -77.3175 247° West 394 453 38,000  Level Cleveland Center
Sat 08:11:20 AM 42.7597 -77.4525 246° West 400 460 38,000  Level Cleveland Center
Sat 08:12:20 AM 42.7075 -77.6106 246° West 406 467 38,000  Level Cleveland Center
Sat 08:13:20 AM 42.6589 -77.7486 244° Southwest 406 467 38,000  Level Cleveland Center
Sat 08:14:20 AM 42.6142 -77.8886 247° West 406 467 38,000  Level Cleveland Center
Sat 08:15:20 AM 42.5672 -78.0233 245° Southwest 406 467 38,000  Level Cleveland Center
Sat 08:16:20 AM 42.5203 -78.1606 245° Southwest 400 460 38,000  Level Cleveland Center
Sat 08:17:20 AM 42.4753 -78.3003 246° West 400 460 38,000  Level Cleveland Center
Sat 08:18:20 AM 42.4278 -78.4369 245° Southwest 405 466 38,000  Level Cleveland Center
Sat 08:19:20 AM 42.3803 -78.5761 245° Southwest 405 466 38,000  Level Cleveland Center
Sat 08:20:20 AM 42.3325 -78.7181 246° West 405 466 38,000  Level Cleveland Center
Sat 08:21:20 AM 42.2825 -78.8544 244° Southwest 405 466 38,000  Level Cleveland Center
Sat 08:22:20 AM 42.2325 -78.9931 244° Southwest 405 466 38,000 -450 Level Cleveland Center
Sat 08:23:20 AM 42.1844 -79.1400 246° West 412 474 37,100 -900 Descending Cleveland Center
Sat 08:24:20 AM 42.1486 -79.2836 251° West 412 474 36,200 -550 Descending Cleveland Center
Sat 08:25:20 AM 42.1106 -79.4328 251° West 412 474 36,000 -100 Descending Cleveland Center
Sat 08:26:20 AM 42.0722 -79.5761 250° West 412 474 36,000  Level Cleveland Center
Sat 08:27:20 AM 42.0339 -79.7222 251° West 412 474 36,000  Level Cleveland Center
Sat 08:28:20 AM 41.9953 -79.8650 250° West 412 474 36,000  Level Cleveland Center
Sat 08:29:20 AM 41.9564 -80.0081 250° West 412 474 36,000  Level Cleveland Center
Sat 08:30:20 AM 41.9217 -80.1367 250° West 412 474 36,000  Level Cleveland Center
Sat 08:31:20 AM 41.8825 -80.2875 251° West 412 474 36,000  Level Cleveland Center
Sat 08:32:20 AM 41.8431 -80.4297 250° West 412 474 36,000  Level Cleveland Center
Sat 08:33:20 AM 41.8017 -80.5775 249° West 417 480 36,000  Level Cleveland Center
Sat 08:34:20 AM 41.7619 -80.7250 250° West 417 480 36,000  Level Cleveland Center
Sat 08:35:20 AM 41.7242 -80.8697 251° West 417 480 36,000  Level Cleveland Center
Sat 08:36:20 AM 41.6819 -81.0197 249° West 422 486 36,000  Level Cleveland Center
Sat 08:37:20 AM 41.6375 -81.1778 249° West 427 491 36,000  Level Cleveland Center
Sat 08:38:20 AM 41.5969 -81.3272 250° West 427 491 36,000  Level Cleveland Center
Sat 08:39:20 AM 41.5564 -81.4711 249° West 427 491 36,000  Level Cleveland Center
Sat 08:40:20 AM 41.5364 -81.6206 260° West 417 480 36,000  Level Cleveland Center
Sat 08:41:20 AM 41.5369 -81.7758 270° West 417 480 36,000  Level Cleveland Center
Sat 08:42:20 AM 41.5350 -81.9311 269° West 417 480 36,000  Level Cleveland Center
Sat 08:43:20 AM 41.5333 -82.0811 269° West 417 480 36,000  Level Cleveland Center
Sat 08:44:20 AM 41.5311 -82.2364 269° West 417 480 36,000  Level Cleveland Center
Sat 08:45:20 AM 41.5289 -82.3889 269° West 417 480 36,000  Level Cleveland Center
Sat 08:46:20 AM 41.5283 -82.5442 270° West 417 480 36,000  Level Cleveland Center
Sat 08:47:20 AM 41.5256 -82.6994 269° West 417 480 36,000  Level Cleveland Center
Sat 08:48:20 AM 41.5225 -82.8519 269° West 415 478 36,000  Level Cleveland Center
Sat 08:49:20 AM 41.5194 -83.0069 269° West 415 478 36,000  Level Cleveland Center
Sat 08:50:20 AM 41.5183 -83.1594 269° West 421 484 36,000  Level Cleveland Center
Sat 08:51:20 AM 41.5125 -83.3147 267° West 421 484 36,000  Level Cleveland Center
Sat 08:52:20 AM 41.5086 -83.4753 268° West 421 484 36,000  Level Cleveland Center
Sat 08:53:20 AM 41.5047 -83.6275 268° West 421 484 36,000  Level Cleveland Center
Sat 08:54:20 AM 41.5025 -83.7856 269° West 421 484 36,000  Level Cleveland Center
Sat 08:55:20 AM 41.4978 -83.9433 268° West 421 484 36,000  Level Cleveland Center
Sat 08:56:20 AM 41.4931 -84.0986 268° West 421 484 36,000 -877 Level Cleveland Center
Sat 08:58:11 AM 41.4892 -84.3658 269° West 425 489 33,500 -1,570 Descending Chicago Center
Sat 08:59:12 AM 41.4847 -84.5197 268° West 417 480 31,500 -1,721 Descending Chicago Center
Sat 09:00:13 AM 41.4808 -84.6664 268° West 401 461 30,000 -732 Descending Chicago Center
Sat 09:01:15 AM 41.4869 -84.8103 273° West 392 451 30,000  Level Chicago Center
Sat 09:02:16 AM 41.4928 -84.9881 273° West 398 458 30,000 -49 Level Chicago Center
Sat 09:03:17 AM 41.4981 -85.1358 273° West 397 457 29,900 -976 Descending Chicago Center
Sat 09:04:19 AM 41.5031 -85.2811 273° West 392 451 28,000 -1,854 Descending Chicago Center
Sat 09:05:20 AM 41.5047 -85.4236 271° West 380 437 26,100 -1,805 Descending Chicago Center
Sat 09:06:22 AM 41.5114 -85.5608 274° West 362 417 24,300 -2,000 Descending Chicago Center
Sat 09:07:23 AM 41.5156 -85.6953 272° West 360 414 22,000 -2,016 Descending Chicago Center
Sat 09:08:24 AM 41.5192 -85.8289 272° West 359 413 20,200 -2,000 Descending Chicago Center
Sat 09:09:26 AM 41.5222 -85.9603 272° West 354 407 17,900 -2,049 Descending Chicago Center
Sat 09:10:27 AM 41.5247 -86.0911 272° West 354 407 16,000 -2,000 Descending Chicago Center
Sat 09:11:29 AM 41.5236 -86.2217 269° West 353 406 13,800 -2,129 Descending Chicago Center
Sat 09:12:31 AM 41.5239 -86.3492 270° West 345 397 11,600 -1,525 Descending Chicago Center
Sat 09:13:31 AM 41.5214 -86.4711 268° West 332 382 10,700 -738 Descending Chicago Center
Sat 09:14:33 AM 41.5206 -86.6178 270° West 332 382 10,100 -439 Descending Chicago Center
Sat 09:15:34 AM 41.5206 -86.7375 270° West 313 360 9,800 -878 Descending Chicago Center
Sat 09:16:36 AM 41.5197 -86.8464 269° West 297 342 8,300 -1,366 Descending Chicago Center
Sat 09:17:37 AM 41.5175 -86.9508 268° West 287 330 7,000 -1,073 Descending Chicago Center
Sat 09:18:39 AM 41.5183 -87.0556 271° West 284 327 6,100 -484 Descending Chicago Center
Sat 09:19:41 AM 41.5164 -87.1578 269° West 280 322 6,000 -67 Descending Chicago Center
Sat 09:20:08 AM 41.5167 -87.2167 270° West 279 321 6,000 -759 Level Chicago TRACON
Sat 09:21:08 AM 41.5167 -87.3167 270° West 282 325 4,900 -1,053 Descending Chicago TRACON
Sat 09:22:02 AM 41.5167 -87.4000 270° West 274 315 4,000 -557 Descending Chicago TRACON
Sat 09:22:45 AM 41.5122 -87.4833 266° West 276 318 4,000  Level Chicago Center
Sat 09:23:47 AM 41.5106 -87.5825 269° West 273 314 4,000  Level Chicago Center
Sat 09:24:48 AM 41.5353 -87.6772 289° West 276 318 4,000  Level Chicago Center
Sat 09:25:50 AM 41.5758 -87.7614 303° West 275 316 4,000 -195 Level Chicago Center
Sat 09:26:51 AM 41.6186 -87.8375 307° West 268 308 3,600 -732 Descending Chicago Center
Sat 09:27:53 AM 41.6603 -87.8972 313° West 255 293 2,500 -584 Descending Chicago Center
Sat 09:28:44 AM 41.7000 -87.8500 42° Northeast 190 219 2,500 -375 Level Chicago TRACON
Sat 09:29:45 AM 41.7333 -87.8167 37° Northeast 141 162 1,800 -744 Descending Chicago TRACON
Sat 09:30:45 AM 41.7667 -87.7833 37° Northeast 139 160 1,000 -800 Descending Chicago TRACON
Sat 09:32:00 AM 41.7833 -87.7500 334° Northwest  Level FlightAware Approximate
Sat 09:39:00 AM 41.7860 -87.7524 334° Northwest  Level Estimated

Login

Don't have an account? Register now (free) for customized features, flight alerts, and more!